WEATHER/FLIGHT PLANNING

Hattiesburg Radar

 

 

 

 

Weather Links

Flight Planning Links

 

METAR

2015/01/31 16:53 KHBG 311653Z AUTO 12006KT 10SM CLR 11/M03 A3035 RMK AO2 SLP278 T01061033

TAF

2015/01/31 18:24 TAF KHBG 311722Z 3118/0118 13007KT P6SM SCT150 FM011100 14003KT 4SM BR BKN012 BKN030 FM011600 17011KT P6SM -SHRA OVC015